createdAt,value
2018-09-25T00:01:56.545Z,1.35
2018-09-25T00:04:30.407Z,1.10
2018-09-25T00:07:04.080Z,1.35
2018-09-25T00:09:37.764Z,1.30
2018-09-25T00:12:11.383Z,1.40
2018-09-25T00:14:45.116Z,1.40
2018-09-25T00:17:18.839Z,1.62
2018-09-25T00:19:52.551Z,1.30
2018-09-25T00:22:26.274Z,1.60
2018-09-25T00:24:59.952Z,1.10
2018-09-25T00:27:33.600Z,2.08
2018-09-25T00:30:07.338Z,1.80
2018-09-25T00:32:41.185Z,1.42
2018-09-25T00:35:14.888Z,0.90
2018-09-25T00:37:48.562Z,1.20
2018-09-25T00:40:22.248Z,1.30
2018-09-25T00:42:55.875Z,1.50
2018-09-25T00:45:29.628Z,1.20
2018-09-25T00:48:03.331Z,1.42
2018-09-25T00:50:37.036Z,1.70
2018-09-25T00:53:10.734Z,1.37
2018-09-25T00:55:44.515Z,1.65
2018-09-25T00:58:18.192Z,1.52
2018-09-25T01:00:51.844Z,1.32
2018-09-25T01:03:25.518Z,1.70
2018-09-25T01:05:59.180Z,1.00
2018-09-25T01:08:32.852Z,1.17
2018-09-25T01:11:06.491Z,1.40
2018-09-25T01:13:40.175Z,1.50
2018-09-25T01:16:14.088Z,1.20
2018-09-25T01:18:47.664Z,1.10
2018-09-25T01:21:21.340Z,1.87
2018-09-25T01:23:54.964Z,1.50
2018-09-25T01:26:28.827Z,1.22
2018-09-25T01:29:02.648Z,1.60
2018-09-25T01:31:36.336Z,1.50
2018-09-25T01:34:10.080Z,1.67
2018-09-25T01:36:43.764Z,1.80
2018-09-25T01:39:17.291Z,1.70
2018-09-25T01:41:51.147Z,1.50
2018-09-25T01:44:24.867Z,1.77
2018-09-25T01:46:58.575Z,1.42
2018-09-25T01:49:32.202Z,1.67
2018-09-25T01:52:05.860Z,1.30
2018-09-25T01:54:39.484Z,1.45
2018-09-25T01:57:13.192Z,1.50
2018-09-25T01:59:46.884Z,1.50
2018-09-25T02:02:20.672Z,1.87
2018-09-25T02:04:54.604Z,1.20
2018-09-25T02:07:28.285Z,1.20
2018-09-25T02:10:01.998Z,1.40
2018-09-25T02:12:35.692Z,1.70
2018-09-25T02:15:09.423Z,1.72
2018-09-25T02:17:43.099Z,1.30
2018-09-25T02:20:16.784Z,1.30
2018-09-25T02:22:50.448Z,1.60
2018-09-25T02:25:24.164Z,1.22
2018-09-25T02:27:57.783Z,1.37
2018-09-25T02:30:31.491Z,1.47
2018-09-25T02:33:05.124Z,1.87
2018-09-25T02:35:38.828Z,1.15
2018-09-25T02:38:12.549Z,1.47
2018-09-25T02:40:46.280Z,1.42
2018-09-25T02:43:20.000Z,1.22
2018-09-25T02:45:53.718Z,1.20
2018-09-25T02:48:27.508Z,1.32
2018-09-25T02:51:01.175Z,2.15
2018-09-25T02:53:34.787Z,1.30
2018-09-25T02:56:08.500Z,1.47
2018-09-25T02:58:42.163Z,1.50
2018-09-25T03:01:15.779Z,1.52
2018-09-25T03:03:49.396Z,1.80
2018-09-25T03:06:23.042Z,1.75
2018-09-25T03:08:56.760Z,1.62
2018-09-25T03:11:30.572Z,1.52
2018-09-25T03:14:04.192Z,1.40
2018-09-25T03:16:37.843Z,1.50
2018-09-25T03:19:11.855Z,1.60
2018-09-25T03:21:45.681Z,1.60
2018-09-25T03:24:19.487Z,1.47
2018-09-25T03:26:53.341Z,1.60
2018-09-25T03:29:27.018Z,1.55
2018-09-25T03:32:00.727Z,1.80
2018-09-25T03:34:34.542Z,1.98
2018-09-25T03:37:08.153Z,1.47
2018-09-25T03:39:41.972Z,1.40
2018-09-25T03:42:15.810Z,1.30
2018-09-25T03:44:49.529Z,1.67
2018-09-25T03:47:23.211Z,1.50
2018-09-25T03:49:56.934Z,1.20
2018-09-25T03:52:30.672Z,1.60
2018-09-25T03:55:04.316Z,1.40
2018-09-25T03:57:38.201Z,2.20
2018-09-25T04:00:12.025Z,1.72
2018-09-25T04:02:46.053Z,1.50
2018-09-25T04:05:19.732Z,1.22
2018-09-25T04:07:53.412Z,1.62
2018-09-25T04:10:27.055Z,1.30
2018-09-25T04:13:00.740Z,2.25
2018-09-25T04:15:34.544Z,1.70
2018-09-25T04:18:08.152Z,1.20
2018-09-25T04:20:41.825Z,1.98
2018-09-25T04:23:15.456Z,1.60
2018-09-25T04:25:49.129Z,1.20
2018-09-25T04:28:22.679Z,1.52
2018-09-25T04:30:56.384Z,1.22
2018-09-25T04:33:31.144Z,1.40
2018-09-25T04:36:04.997Z,1.77
2018-09-25T04:38:38.612Z,1.32
2018-09-25T04:41:12.340Z,1.98
2018-09-25T04:43:46.056Z,1.52
2018-09-25T04:46:19.800Z,1.07
2018-09-25T04:48:53.492Z,2.05
2018-09-25T04:51:27.151Z,2.20
2018-09-25T04:54:00.876Z,3.90
2018-09-25T04:56:34.611Z,4.03
2018-09-25T04:59:08.404Z,4.00
2018-09-25T05:01:41.945Z,6.42
2018-09-25T05:04:15.635Z,5.22
2018-09-25T05:06:49.380Z,2.83
2018-09-25T05:09:22.871Z,4.60
2018-09-25T05:11:56.592Z,4.10
2018-09-25T05:14:30.395Z,2.75
2018-09-25T05:17:04.060Z,3.25
2018-09-25T05:19:37.782Z,3.25
2018-09-25T05:22:11.886Z,4.15
2018-09-25T05:24:45.709Z,3.33
2018-09-25T05:27:19.398Z,2.70
2018-09-25T05:29:53.092Z,3.08
2018-09-25T05:32:26.805Z,3.08
2018-09-25T05:35:00.440Z,2.70
2018-09-25T05:37:34.084Z,3.67
2018-09-25T05:40:07.986Z,3.33
2018-09-25T05:42:41.688Z,3.27
2018-09-25T05:45:15.283Z,2.80
2018-09-25T05:47:48.916Z,4.22
2018-09-25T05:50:22.536Z,4.15
2018-09-25T05:52:56.352Z,3.40
2018-09-25T05:55:30.254Z,3.35
2018-09-25T05:58:03.933Z,3.40
2018-09-25T06:00:37.578Z,3.90
2018-09-25T06:03:11.289Z,3.80
2018-09-25T06:05:44.937Z,4.12
2018-09-25T06:08:18.669Z,3.77
2018-09-25T06:10:52.372Z,3.75
2018-09-25T06:13:26.000Z,4.10
2018-09-25T06:15:59.696Z,3.92
2018-09-25T06:18:33.434Z,3.95
2018-09-25T06:21:07.124Z,3.22
2018-09-25T06:23:40.784Z,3.85
2018-09-25T06:26:14.508Z,3.77
2018-09-25T06:28:48.209Z,4.80
2018-09-25T06:31:22.036Z,4.33
2018-09-25T06:33:55.831Z,3.80
2018-09-25T06:36:29.519Z,4.53
2018-09-25T06:39:03.280Z,3.37
2018-09-25T06:41:37.130Z,3.77
2018-09-25T06:44:11.337Z,4.03
2018-09-25T06:46:45.157Z,3.80
2018-09-25T06:49:18.764Z,3.62
2018-09-25T06:51:52.436Z,3.52
2018-09-25T06:54:26.097Z,3.27
2018-09-25T06:56:59.719Z,4.00
2018-09-25T06:59:33.383Z,2.65
2018-09-25T07:02:07.124Z,3.80
2018-09-25T07:04:40.864Z,3.02
2018-09-25T07:07:14.661Z,3.33
2018-09-25T07:09:48.509Z,3.10
2018-09-25T07:12:22.256Z,3.25
2018-09-25T07:14:56.052Z,3.17
2018-09-25T07:17:29.892Z,2.25
2018-09-25T07:20:03.607Z,3.87
2018-09-25T07:22:37.523Z,3.02
2018-09-25T07:25:11.203Z,3.65
2018-09-25T07:27:44.928Z,3.00
2018-09-25T07:30:18.544Z,3.35
2018-09-25T07:32:52.156Z,3.52
2018-09-25T07:35:25.777Z,3.12
2018-09-25T07:37:59.464Z,2.60
2018-09-25T07:40:33.184Z,2.87
2018-09-25T07:43:06.868Z,2.42
2018-09-25T07:45:40.664Z,2.42
2018-09-25T07:48:14.476Z,2.33
2018-09-25T07:50:48.148Z,2.22
2018-09-25T07:53:21.826Z,2.55
2018-09-25T07:55:55.599Z,2.30
2018-09-25T07:58:29.288Z,2.40
2018-09-25T08:01:03.013Z,2.72
2018-09-25T08:03:36.785Z,2.33
2018-09-25T08:06:10.559Z,1.80
2018-09-25T08:08:44.268Z,2.65
2018-09-25T08:11:17.896Z,2.67
2018-09-25T08:13:51.603Z,1.90
2018-09-25T08:16:25.451Z,2.55
2018-09-25T08:18:59.108Z,1.95
2018-09-25T08:21:32.756Z,2.33
2018-09-25T08:24:06.417Z,2.30
2018-09-25T08:26:40.236Z,3.05
2018-09-25T08:29:13.951Z,2.08
2018-09-25T08:31:47.547Z,2.22
2018-09-25T08:34:21.208Z,1.70
2018-09-25T08:36:54.848Z,3.00
2018-09-25T08:39:28.684Z,2.40
2018-09-25T08:42:02.104Z,2.62
2018-09-25T08:44:35.788Z,1.75
2018-09-25T08:47:09.508Z,1.92
2018-09-25T08:49:43.168Z,2.15
2018-09-25T08:52:17.045Z,2.20
2018-09-25T08:54:50.628Z,2.58
2018-09-25T08:57:24.267Z,2.22
2018-09-25T08:59:57.888Z,3.60
2018-09-25T09:02:31.523Z,2.12
2018-09-25T09:05:05.264Z,2.40
2018-09-25T09:07:38.884Z,2.05
2018-09-25T09:10:12.697Z,2.45
2018-09-25T09:12:46.363Z,1.40
2018-09-25T09:15:20.256Z,1.98
2018-09-25T09:17:53.899Z,1.75
2018-09-25T09:20:27.912Z,1.70
2018-09-25T09:23:01.532Z,2.27
2018-09-25T09:25:35.315Z,1.40
2018-09-25T09:28:08.908Z,1.85
2018-09-25T09:30:42.543Z,2.60
2018-09-25T09:33:16.063Z,1.10
2018-09-25T09:35:49.704Z,1.47
2018-09-25T09:38:23.324Z,1.27
2018-09-25T09:40:57.027Z,1.00
2018-09-25T09:43:30.641Z,1.25
2018-09-25T09:46:04.525Z,1.80
2018-09-25T09:48:38.232Z,1.80
2018-09-25T09:51:12.176Z,1.25
2018-09-25T09:53:45.968Z,1.50
2018-09-25T09:56:19.664Z,1.47
2018-09-25T09:58:53.340Z,2.10
2018-09-25T10:01:27.140Z,1.82
2018-09-25T10:04:00.825Z,1.77
2018-09-25T10:06:34.428Z,1.85
2018-09-25T10:09:08.156Z,1.62
2018-09-25T10:11:41.800Z,1.30
2018-09-25T10:14:15.484Z,1.12
2018-09-25T10:16:49.333Z,1.67
2018-09-25T10:19:23.040Z,1.40
2018-09-25T10:21:56.736Z,1.25
2018-09-25T10:24:30.450Z,1.77
2018-09-25T10:27:04.068Z,1.35
2018-09-25T10:29:37.804Z,1.50
2018-09-25T10:32:11.449Z,1.92
2018-09-25T10:34:45.137Z,1.62
2018-09-25T10:37:18.732Z,1.20
2018-09-25T10:39:52.366Z,1.05
2018-09-25T10:42:25.940Z,1.20
2018-09-25T10:44:59.552Z,1.82
2018-09-25T10:47:33.268Z,1.10
2018-09-25T10:50:06.893Z,1.10
2018-09-25T10:52:40.603Z,1.40
2018-09-25T10:55:14.243Z,1.70
2018-09-25T10:57:47.885Z,1.57
2018-09-25T11:00:21.565Z,1.55
2018-09-25T11:02:55.333Z,1.62
2018-09-25T11:05:29.068Z,1.55
2018-09-25T11:08:02.801Z,1.72
2018-09-25T11:10:36.455Z,1.57
2018-09-25T11:13:10.063Z,1.60
2018-09-25T11:15:43.858Z,1.02
2018-09-25T11:18:17.632Z,1.35
2018-09-25T11:20:51.439Z,1.20
2018-09-25T11:23:25.108Z,1.70
2018-09-25T11:25:58.843Z,1.40
2018-09-25T11:28:32.385Z,1.20
2018-09-25T11:31:06.259Z,1.25
2018-09-25T11:33:39.852Z,1.85
2018-09-25T11:36:13.460Z,1.22
2018-09-25T11:38:47.103Z,2.30
2018-09-25T11:41:20.775Z,1.55
2018-09-25T11:43:54.439Z,1.20
2018-09-25T11:46:28.128Z,1.40
2018-09-25T11:49:01.821Z,1.60
2018-09-25T11:51:35.384Z,1.42
2018-09-25T11:54:08.920Z,1.72
2018-09-25T11:56:42.532Z,1.50
2018-09-25T11:59:16.384Z,1.65
2018-09-25T12:01:50.064Z,1.20
2018-09-25T12:04:23.844Z,1.17
2018-09-25T12:06:57.504Z,1.12
2018-09-25T12:09:31.148Z,1.30
2018-09-25T12:12:04.784Z,1.45
2018-09-25T12:14:38.578Z,1.35
2018-09-25T12:17:12.260Z,1.65
2018-09-25T12:19:46.019Z,1.10
2018-09-25T12:22:19.676Z,1.27
2018-09-25T12:24:53.327Z,1.57
2018-09-25T12:27:27.205Z,1.30
2018-09-25T12:30:00.739Z,1.00
2018-09-25T12:32:34.511Z,1.20
2018-09-25T12:35:08.124Z,1.35
2018-09-25T12:37:41.767Z,1.20
2018-09-25T12:40:22.402Z,2.25
2018-09-25T12:42:56.072Z,1.27
2018-09-25T12:45:29.925Z,0.90
2018-09-25T12:48:03.454Z,0.90
2018-09-25T12:50:37.076Z,1.50
2018-09-25T12:53:10.660Z,1.30
2018-09-25T12:55:44.369Z,1.10
2018-09-25T12:58:18.219Z,0.72
2018-09-25T13:00:51.777Z,0.98
2018-09-25T13:03:25.653Z,0.90
2018-09-25T13:05:59.187Z,1.25
2018-09-25T13:08:32.835Z,1.12
2018-09-25T13:11:06.464Z,1.30
2018-09-25T13:13:40.112Z,1.45
2018-09-25T13:16:13.628Z,1.20
2018-09-25T13:18:47.315Z,1.42
2018-09-25T13:21:21.123Z,1.50
2018-09-25T13:23:54.907Z,1.90
2018-09-25T13:26:28.712Z,1.82
2018-09-25T13:29:02.304Z,1.25
2018-09-25T13:31:36.092Z,1.60
2018-09-25T13:34:09.788Z,1.60
2018-09-25T13:36:43.444Z,2.10
2018-09-25T13:39:17.124Z,1.37
2018-09-25T13:41:50.973Z,1.92
2018-09-25T13:44:24.596Z,2.08
2018-09-25T13:46:58.459Z,1.30
2018-09-25T13:49:32.052Z,2.17
2018-09-25T13:52:05.711Z,1.75
2018-09-25T13:54:39.414Z,2.72
2018-09-25T13:57:13.120Z,2.17
2018-09-25T13:59:46.796Z,1.62
2018-09-25T14:02:20.347Z,1.00
2018-09-25T14:04:54.151Z,1.10
2018-09-25T14:07:27.859Z,1.90
2018-09-25T14:10:01.656Z,1.90
2018-09-25T14:12:35.260Z,1.40
2018-09-25T14:15:08.888Z,1.20
2018-09-25T14:17:42.444Z,1.10
2018-09-25T14:20:16.535Z,1.70
2018-09-25T14:22:50.352Z,0.90
2018-09-25T14:25:24.029Z,1.27
2018-09-25T14:27:59.017Z,1.02
2018-09-25T14:30:33.183Z,1.15
2018-09-25T14:33:06.964Z,0.90
2018-09-25T14:35:40.659Z,1.47
2018-09-25T14:38:14.492Z,1.30
2018-09-25T14:40:48.199Z,1.27
2018-09-25T14:43:21.959Z,0.98
2018-09-25T14:45:55.798Z,1.15
2018-09-25T14:48:29.618Z,1.32
2018-09-25T14:51:03.148Z,0.82
2018-09-25T14:53:36.743Z,1.50
2018-09-25T14:56:10.308Z,1.50
2018-09-25T14:58:44.003Z,1.35
2018-09-25T15:01:17.663Z,0.98
2018-09-25T15:03:51.331Z,2.02
2018-09-25T15:06:25.068Z,0.98
2018-09-25T15:08:58.744Z,1.22
2018-09-25T15:11:32.400Z,2.12
2018-09-25T15:14:06.200Z,3.95
2018-09-25T15:16:40.060Z,1.70
2018-09-25T15:19:13.623Z,1.15
2018-09-25T15:21:47.507Z,1.20
2018-09-25T15:24:20.959Z,1.55
2018-09-25T15:26:54.497Z,1.45
2018-09-25T15:29:28.020Z,1.15
2018-09-25T15:32:01.728Z,1.60
2018-09-25T15:34:35.446Z,1.20
2018-09-25T15:37:09.107Z,1.35
2018-09-25T15:39:42.800Z,1.47
2018-09-25T15:42:16.611Z,1.22
2018-09-25T15:44:50.287Z,0.85
2018-09-25T15:47:23.939Z,0.90
2018-09-25T15:49:57.701Z,1.22
2018-09-25T15:52:31.352Z,0.80
2018-09-25T15:55:05.019Z,1.00
2018-09-25T15:57:38.782Z,1.20
2018-09-25T16:00:12.985Z,0.85
2018-09-25T16:02:46.611Z,1.00
2018-09-25T16:05:20.292Z,1.07
2018-09-25T16:07:53.920Z,0.95
2018-09-25T16:10:27.647Z,1.35
2018-09-25T16:13:01.527Z,1.42
2018-09-25T16:15:35.199Z,2.30
2018-09-25T16:18:08.784Z,1.95
2018-09-25T16:20:42.404Z,1.50
2018-09-25T16:23:16.039Z,2.62
2018-09-25T16:25:49.660Z,0.88
2018-09-25T16:28:23.316Z,1.30
2018-09-25T16:30:56.967Z,1.05
2018-09-25T16:33:30.625Z,1.15
2018-09-25T16:36:04.347Z,0.93
2018-09-25T16:38:38.182Z,1.10
2018-09-25T16:41:11.915Z,1.52
2018-09-25T16:43:45.679Z,2.20
2018-09-25T16:46:19.455Z,3.70
2018-09-25T16:48:53.248Z,3.10
2018-09-25T16:51:27.064Z,1.72
2018-09-25T16:54:00.653Z,2.45
2018-09-25T16:56:34.316Z,1.60
2018-09-25T16:59:08.132Z,1.70
2018-09-25T17:01:41.804Z,1.80
2018-09-25T17:04:15.444Z,1.55
2018-09-25T17:06:49.216Z,1.92
2018-09-25T17:09:22.995Z,2.02
2018-09-25T17:11:56.792Z,1.85
2018-09-25T17:14:30.452Z,1.40
2018-09-25T17:17:04.096Z,2.08
2018-09-25T17:19:37.790Z,2.30
2018-09-25T17:22:11.600Z,1.95
2018-09-25T17:24:45.380Z,2.37
2018-09-25T17:27:19.056Z,1.95
2018-09-25T17:29:52.760Z,2.30
2018-09-25T17:32:26.573Z,1.90
2018-09-25T17:35:00.288Z,2.40
2018-09-25T17:37:34.048Z,2.20
2018-09-25T17:40:07.726Z,1.47
2018-09-25T17:42:41.428Z,1.77
2018-09-25T17:45:15.072Z,1.42
2018-09-25T17:47:48.831Z,1.60
2018-09-25T17:50:22.736Z,1.55
2018-09-25T17:52:56.369Z,1.80
2018-09-25T17:55:30.043Z,1.92
2018-09-25T17:58:03.740Z,1.62
2018-09-25T18:00:37.523Z,3.55
2018-09-25T18:03:11.751Z,14.35
2018-09-25T18:05:45.600Z,6.65
2018-09-25T18:08:19.412Z,2.80
2018-09-25T18:10:53.184Z,4.87
2018-09-25T18:13:26.712Z,4.03
2018-09-25T18:16:01.009Z,3.55
2018-09-25T18:18:34.852Z,1.77
2018-09-25T18:21:08.820Z,3.80
2018-09-25T18:23:42.476Z,5.72
2018-09-25T18:26:16.302Z,4.45
2018-09-25T18:28:49.933Z,2.90
2018-09-25T18:31:23.708Z,2.55
2018-09-25T18:33:57.370Z,2.27
2018-09-25T18:36:31.266Z,2.40
2018-09-25T18:39:05.040Z,2.33
2018-09-25T18:41:38.822Z,2.50
2018-09-25T18:44:12.423Z,2.45
2018-09-25T18:46:45.903Z,2.77
2018-09-25T18:49:19.603Z,4.10
2018-09-25T18:51:53.405Z,3.30
2018-09-25T18:54:27.344Z,3.12
2018-09-25T18:57:01.094Z,2.90
2018-09-25T18:59:34.788Z,3.33
2018-09-25T19:02:08.604Z,2.98
2018-09-25T19:04:42.288Z,2.30
2018-09-25T19:07:15.929Z,2.33
2018-09-25T19:09:49.713Z,2.60
2018-09-25T19:12:23.504Z,2.80
2018-09-25T19:14:57.248Z,3.20
2018-09-25T19:17:30.966Z,3.10
2018-09-25T19:20:04.652Z,2.70
2018-09-25T19:22:38.423Z,2.90
2018-09-25T19:25:12.232Z,3.40
2018-09-25T19:27:45.921Z,4.20
2018-09-25T19:30:19.544Z,3.95
2018-09-25T19:32:53.387Z,5.00
2018-09-25T19:35:28.035Z,3.62
2018-09-25T19:38:01.801Z,3.47
2018-09-25T19:40:35.575Z,3.00
2018-09-25T19:43:09.244Z,3.50
2018-09-25T19:45:42.956Z,3.08
2018-09-25T19:48:16.601Z,4.25
2018-09-25T19:50:50.293Z,8.08
2018-09-25T19:53:24.027Z,4.78
2018-09-25T19:55:57.824Z,5.35
2018-09-25T19:58:31.431Z,4.92
2018-09-25T20:01:05.175Z,5.37
2018-09-25T20:03:39.085Z,4.42
2018-09-25T20:06:12.688Z,4.85
2018-09-25T20:08:46.471Z,4.20
2018-09-25T20:11:20.216Z,4.70
2018-09-25T20:13:53.880Z,4.72
2018-09-25T20:16:27.604Z,4.90
2018-09-25T20:19:01.188Z,3.37
2018-09-25T20:21:34.780Z,6.15
2018-09-25T20:24:08.392Z,6.85
2018-09-25T20:26:41.988Z,6.72
2018-09-25T20:29:15.684Z,6.10
2018-09-25T20:31:49.296Z,7.08
2018-09-25T20:34:22.960Z,7.53
2018-09-25T20:36:56.604Z,8.15
2018-09-25T20:39:30.214Z,8.60
2018-09-25T20:42:03.908Z,8.20
2018-09-25T20:44:37.619Z,8.30
2018-09-25T20:47:11.313Z,8.83
2018-09-25T20:49:45.125Z,9.38
2018-09-25T20:52:18.796Z,7.25
2018-09-25T20:54:52.403Z,7.22
2018-09-25T20:57:26.084Z,8.05
2018-09-25T20:59:59.712Z,7.72
2018-09-25T21:02:33.405Z,8.63
2018-09-25T21:05:07.044Z,6.47
2018-09-25T21:07:40.688Z,6.30
2018-09-25T21:10:14.376Z,6.15
2018-09-25T21:12:47.976Z,6.08
2018-09-25T21:15:21.660Z,5.37
2018-09-25T21:17:55.328Z,5.50
2018-09-25T21:20:28.988Z,5.60
2018-09-25T21:23:02.656Z,5.90
2018-09-25T21:25:36.340Z,5.17
2018-09-25T21:28:09.991Z,6.33
2018-09-25T21:30:43.671Z,4.75
2018-09-25T21:33:17.356Z,5.90
2018-09-25T21:35:51.036Z,7.05
2018-09-25T21:38:24.648Z,8.20
2018-09-25T21:40:58.264Z,7.05
2018-09-25T21:43:31.956Z,6.72
2018-09-25T21:46:05.520Z,6.72
2018-09-25T21:48:39.202Z,7.47
2018-09-25T21:51:13.138Z,5.65
2018-09-25T21:53:46.623Z,5.95
2018-09-25T21:56:20.404Z,6.05
2018-09-25T21:58:54.234Z,5.87
2018-09-25T22:01:27.866Z,5.58
2018-09-25T22:04:01.540Z,4.60
2018-09-25T22:06:35.168Z,5.05
2018-09-25T22:09:08.991Z,5.05
2018-09-25T22:11:42.779Z,4.50
2018-09-25T22:14:16.424Z,6.03
2018-09-25T22:16:50.231Z,5.08
2018-09-25T22:19:30.672Z,4.83
2018-09-25T22:22:04.215Z,4.35
2018-09-25T22:24:37.970Z,4.80
2018-09-25T22:27:11.701Z,4.25
2018-09-25T22:29:45.365Z,2.45
2018-09-25T22:32:18.956Z,2.72
2018-09-25T22:34:52.669Z,3.85
2018-09-25T22:37:26.313Z,5.17
2018-09-25T22:40:00.104Z,5.05
2018-09-25T22:42:33.692Z,4.15
2018-09-25T22:45:07.451Z,4.92
2018-09-25T22:47:41.102Z,3.55
2018-09-25T22:50:14.759Z,3.25
2018-09-25T22:52:48.355Z,3.10
2018-09-25T22:55:22.115Z,2.60
2018-09-25T22:57:55.792Z,3.17
2018-09-25T23:00:29.443Z,2.70
2018-09-25T23:03:02.939Z,4.08
2018-09-25T23:05:36.605Z,3.35
2018-09-25T23:08:10.267Z,3.37
2018-09-25T23:10:43.927Z,5.17
2018-09-25T23:13:17.756Z,3.60
2018-09-25T23:15:51.417Z,4.62
2018-09-25T23:18:25.084Z,3.67
2018-09-25T23:20:58.743Z,4.22
2018-09-25T23:23:32.372Z,4.22
2018-09-25T23:26:06.027Z,3.55
2018-09-25T23:28:39.853Z,3.75
2018-09-25T23:31:13.563Z,4.33
2018-09-25T23:33:47.031Z,4.60
2018-09-25T23:36:20.663Z,3.65
2018-09-25T23:38:54.511Z,3.55
2018-09-25T23:42:31.035Z,4.00
2018-09-25T23:45:06.512Z,2.95
2018-09-25T23:47:44.090Z,2.42
2018-09-25T23:50:26.188Z,2.50
2018-09-25T23:52:58.413Z,2.70
2018-09-25T23:55:34.919Z,2.83
2018-09-25T23:58:07.787Z,3.75
